Portada
METAR-TAF:

METAR-TAF

Aeroports :

Aeroport de Can Tho

Cần Thơ, Vietnam

latitud: 10-05-07N, longitud: 105-42-43E, altitud: 3 m

Observació

L'informe es va fer fa 30 minuts, a les 06:00 UTC
Vent 7 kt del Est/Nord-Est
Temperatura 33°C
Humitat 67%
Pressió 1008 hPa
Visibilitat 10 km o més
Escasses núvols a una alçada de 1500 ft

METAR: VVCT 080600Z 07007KT 9999 FEW015 33/26 Q1008 NOSIG

Hora: 13:30 (06:30 UTC)

Pronòstic

L'informe es va fer fa 1 hora i 30 minuts, a les 05:00 UTC
Pronòstic vàlid del 08 a les 06 UTC al 09 a les 06 UTC
Vent 5 kt del Est
Visibilitat 10 km o més
Núvols disperses a una alçada de 1500 ft
Probabilitat 30% :
Temporalment
l' 08 a les 07 UTC al 08 a les 11 UTC
Visibilitat: 5000 m
Núvols disperses a una alçada de 1500 ft
Núvols disperses a una alçada de 1700 ft, Cumulonimbus.
tempesta, pluja

TAF: VVCT 080500Z 0806/0906 09005KT 9999 SCT015 PROB30 TEMPO 0807/0811 5000 TSRA SCT015 SCT017CB

Observacions i pronòstics meteorològics de més de 4000 aeroports (METAR i TAF).

Les estacions disponibles són els punts grocs i vermells al mapa.

Posi el ratolí al punt desitjat per veure el nom de l'estació.

Feu clic per veure les observacions i els pronòstics meteorològics.

Per canviar el mapa: feu clic els botons verds amb una creu de color negre per apropar; al botó verd amb un guió per allunyar la imatge; o en les fletxes verdes per a mapes adjacents.


METAR-TAF: